createdAt,value
2022-08-25T00:01:51.012Z,67.59
2022-08-25T00:04:21.298Z,67.56
2022-08-25T00:06:49.295Z,67.77
2022-08-25T00:09:18.918Z,67.54
2022-08-25T00:11:47.151Z,67.81
2022-08-25T00:14:18.373Z,68.16
2022-08-25T00:16:45.486Z,67.74
2022-08-25T00:19:16.914Z,68.18
2022-08-25T00:21:45.323Z,68.13
2022-08-25T00:24:15.000Z,68.48
2022-08-25T00:26:43.917Z,68.63
2022-08-25T00:29:11.545Z,68.00
2022-08-25T00:31:39.339Z,67.74
2022-08-25T00:34:12.262Z,67.51
2022-08-25T00:36:39.473Z,66.93
2022-08-25T00:39:08.173Z,66.92
2022-08-25T00:41:36.742Z,66.97
2022-08-25T00:44:06.349Z,67.15
2022-08-25T00:46:38.586Z,66.81
2022-08-25T00:49:14.675Z,66.51
2022-08-25T00:51:56.614Z,66.89
2022-08-25T00:54:28.444Z,66.54
2022-08-25T00:56:56.821Z,66.51
2022-08-25T00:59:26.521Z,66.75
2022-08-25T01:01:54.172Z,66.75
2022-08-25T01:04:21.107Z,66.48
2022-08-25T01:06:48.965Z,66.40
2022-08-25T01:09:17.217Z,66.25
2022-08-25T01:11:44.991Z,66.58
2022-08-25T01:14:15.257Z,66.59
2022-08-25T01:16:43.920Z,66.58
2022-08-25T01:19:15.417Z,66.57
2022-08-25T01:21:48.746Z,66.27
2022-08-25T01:24:31.465Z,66.64
2022-08-25T01:26:58.678Z,66.34
2022-08-25T01:29:25.767Z,66.23
2022-08-25T01:32:01.342Z,66.79
2022-08-25T01:34:31.965Z,66.30
2022-08-25T01:37:00.280Z,66.36
2022-08-25T01:39:29.524Z,66.44
2022-08-25T01:42:11.623Z,67.24
2022-08-25T01:44:41.780Z,66.21
2022-08-25T01:47:09.004Z,66.12
2022-08-25T01:49:35.995Z,66.41
2022-08-25T01:52:11.614Z,66.42
2022-08-25T01:54:39.065Z,66.22
2022-08-25T01:57:06.201Z,66.44
2022-08-25T01:59:32.988Z,66.55
2022-08-25T02:02:00.139Z,66.21
2022-08-25T02:04:32.075Z,66.42
2022-08-25T02:07:00.957Z,66.38
2022-08-25T02:09:29.988Z,66.34
2022-08-25T02:11:56.913Z,66.34
2022-08-25T02:14:24.128Z,66.19
2022-08-25T02:16:53.240Z,66.29
2022-08-25T02:19:21.115Z,65.96
2022-08-25T02:21:48.588Z,66.23
2022-08-25T02:24:15.744Z,66.16
2022-08-25T02:26:42.331Z,66.20
2022-08-25T02:29:10.358Z,66.15
2022-08-25T02:31:37.951Z,66.17
2022-08-25T02:34:05.446Z,66.27
2022-08-25T02:36:32.439Z,66.07
2022-08-25T02:38:59.636Z,66.12
2022-08-25T02:41:31.347Z,65.93
2022-08-25T02:43:59.463Z,65.92
2022-08-25T02:46:26.324Z,66.33
2022-08-25T02:48:53.347Z,66.02
2022-08-25T02:51:23.223Z,66.03
2022-08-25T02:53:50.381Z,65.93
2022-08-25T02:56:18.719Z,65.98
2022-08-25T02:58:46.143Z,65.99
2022-08-25T03:01:13.406Z,65.82
2022-08-25T03:03:42.175Z,65.72
2022-08-25T03:06:12.605Z,65.68
2022-08-25T03:08:40.151Z,65.53
2022-08-25T03:11:06.982Z,65.47
2022-08-25T03:13:33.909Z,65.48
2022-08-25T03:16:01.306Z,65.16
2022-08-25T03:18:30.527Z,65.20
2022-08-25T03:20:57.512Z,65.17
2022-08-25T03:23:24.829Z,65.09
2022-08-25T03:26:12.224Z,65.19
2022-08-25T03:28:39.198Z,64.86
2022-08-25T03:31:06.144Z,64.73
2022-08-25T03:33:32.800Z,64.81
2022-08-25T03:35:59.764Z,64.52
2022-08-25T03:38:26.818Z,64.26
2022-08-25T03:40:54.362Z,64.19
2022-08-25T03:43:21.560Z,64.23
2022-08-25T03:45:48.540Z,64.13
2022-08-25T03:48:16.827Z,63.86
2022-08-25T03:50:52.078Z,63.61
2022-08-25T03:53:20.549Z,63.79
2022-08-25T03:55:47.722Z,63.55
2022-08-25T03:58:14.776Z,63.66
2022-08-25T04:00:42.231Z,63.35
2022-08-25T04:03:09.070Z,63.39
2022-08-25T04:05:35.877Z,63.39
2022-08-25T04:08:02.842Z,63.49
2022-08-25T04:10:30.285Z,63.46
2022-08-25T04:12:57.265Z,63.69
2022-08-25T04:15:28.491Z,63.73
2022-08-25T04:17:59.207Z,63.75
2022-08-25T04:20:26.020Z,63.36
2022-08-25T04:22:52.678Z,63.48
2022-08-25T04:25:19.387Z,63.63
2022-08-25T04:27:45.946Z,63.53
2022-08-25T04:30:13.277Z,63.66
2022-08-25T04:32:39.810Z,63.70
2022-08-25T04:35:07.527Z,63.72
2022-08-25T04:37:34.427Z,63.67
2022-08-25T04:40:01.447Z,63.65
2022-08-25T04:42:28.386Z,63.66
2022-08-25T04:44:54.902Z,63.67
2022-08-25T04:47:22.204Z,63.73
2022-08-25T04:49:48.985Z,63.63
2022-08-25T04:52:15.818Z,63.66
2022-08-25T04:54:43.896Z,63.68
2022-08-25T04:57:11.080Z,63.65
2022-08-25T04:59:37.706Z,63.48
2022-08-25T05:02:06.600Z,63.56
2022-08-25T05:04:36.261Z,63.47
2022-08-25T05:07:04.272Z,63.37
2022-08-25T05:09:32.593Z,63.59
2022-08-25T05:12:01.313Z,63.58
2022-08-25T05:14:28.732Z,63.29
2022-08-25T05:16:56.582Z,63.48
2022-08-25T05:19:24.601Z,63.60
2022-08-25T05:21:51.680Z,63.51
2022-08-25T05:24:18.905Z,63.38
2022-08-25T05:26:46.009Z,63.38
2022-08-25T05:29:13.079Z,63.13
2022-08-25T05:31:49.561Z,62.59
2022-08-25T05:34:18.857Z,63.06
2022-08-25T05:36:46.179Z,62.81
2022-08-25T05:39:13.288Z,62.57
2022-08-25T05:41:39.949Z,62.50
2022-08-25T05:44:06.917Z,62.20
2022-08-25T05:46:33.893Z,62.60
2022-08-25T05:49:00.523Z,62.74
2022-08-25T05:51:27.119Z,62.93
2022-08-25T05:53:54.136Z,62.88
2022-08-25T05:56:21.513Z,62.78
2022-08-25T05:58:48.642Z,62.87
2022-08-25T06:01:45.756Z,61.95
2022-08-25T06:04:13.575Z,62.37
2022-08-25T06:06:41.044Z,62.29
2022-08-25T06:09:09.521Z,62.29
2022-08-25T06:11:39.747Z,61.84
2022-08-25T06:14:07.637Z,61.90
2022-08-25T06:16:34.457Z,61.61
2022-08-25T06:19:01.308Z,61.36
2022-08-25T06:21:29.279Z,61.28
2022-08-25T06:23:56.209Z,60.82
2022-08-25T06:26:23.475Z,60.62
2022-08-25T06:28:52.206Z,60.47
2022-08-25T06:31:22.621Z,60.00
2022-08-25T06:33:50.154Z,60.13
2022-08-25T06:36:17.134Z,60.42
2022-08-25T06:38:43.781Z,60.02
2022-08-25T06:41:14.007Z,60.30
2022-08-25T06:43:48.065Z,60.00
2022-08-25T06:46:21.614Z,59.94
2022-08-25T06:48:49.256Z,60.59
2022-08-25T06:51:17.937Z,60.24
2022-08-25T06:53:48.955Z,59.85
2022-08-25T06:56:20.013Z,59.90
2022-08-25T06:58:48.166Z,59.93
2022-08-25T07:01:23.525Z,59.70
2022-08-25T07:03:57.805Z,59.67
2022-08-25T07:06:26.696Z,59.89
2022-08-25T07:08:54.185Z,59.73
2022-08-25T07:11:21.556Z,59.50
2022-08-25T07:13:49.110Z,58.16
2022-08-25T07:16:16.757Z,59.00
2022-08-25T07:18:44.676Z,58.63
2022-08-25T07:21:12.820Z,58.39
2022-08-25T07:23:41.188Z,58.64
2022-08-25T07:29:16.768Z,57.38
2022-08-25T07:31:44.464Z,57.73
2022-08-25T07:34:30.107Z,57.62
2022-08-25T07:36:57.751Z,57.59
2022-08-25T07:39:26.465Z,57.77
2022-08-25T07:41:53.744Z,56.93
2022-08-25T07:44:24.562Z,56.44
2022-08-25T07:46:54.969Z,57.09
2022-08-25T07:49:23.831Z,56.69
2022-08-25T07:52:04.643Z,56.64
2022-08-25T07:54:34.055Z,56.41
2022-08-25T07:57:30.010Z,56.00
2022-08-25T07:59:57.005Z,55.98
2022-08-25T08:02:24.831Z,55.40
2022-08-25T08:04:53.532Z,55.27
2022-08-25T08:07:23.796Z,54.60
2022-08-25T08:12:56.970Z,55.18
2022-08-25T08:15:23.947Z,54.75
2022-08-25T08:17:52.591Z,54.42
2022-08-25T08:20:23.380Z,54.60
2022-08-25T08:22:50.516Z,53.09
2022-08-25T08:25:21.316Z,53.24
2022-08-25T08:27:50.991Z,52.98
2022-08-25T08:30:21.807Z,52.97
2022-08-25T08:33:09.299Z,52.73
2022-08-25T08:35:37.230Z,53.01
2022-08-25T08:38:13.505Z,52.69
2022-08-25T08:41:15.264Z,52.38
2022-08-25T08:43:43.726Z,51.25
2022-08-25T08:46:10.644Z,51.88
2022-08-25T08:48:43.135Z,51.25
2022-08-25T08:51:33.496Z,50.18
2022-08-25T08:54:14.910Z,52.04
2022-08-25T08:56:48.229Z,50.80
2022-08-25T08:59:22.531Z,49.56
2022-08-25T09:02:02.889Z,49.00
2022-08-25T09:04:40.411Z,48.66
2022-08-25T09:07:13.100Z,48.88
2022-08-25T09:09:42.463Z,49.81
2022-08-25T09:12:31.626Z,47.61
2022-08-25T09:15:18.698Z,47.01
2022-08-25T09:18:13.906Z,48.07
2022-08-25T09:21:03.142Z,48.04
2022-08-25T09:23:44.676Z,47.38
2022-08-25T09:26:11.835Z,48.46
2022-08-25T09:28:51.360Z,48.41
2022-08-25T09:31:31.975Z,47.11
2022-08-25T09:34:02.586Z,46.92
2022-08-25T09:36:33.242Z,46.90
2022-08-25T09:39:04.249Z,47.12
2022-08-25T09:41:56.879Z,45.33
2022-08-25T09:44:31.410Z,46.52
2022-08-25T09:47:08.154Z,46.47
2022-08-25T09:49:40.160Z,46.79
2022-08-25T09:52:26.214Z,47.38
2022-08-25T09:54:56.018Z,46.64
2022-08-25T09:57:43.804Z,47.13
2022-08-25T10:00:24.195Z,45.59
2022-08-25T10:03:22.882Z,41.89
2022-08-25T10:06:14.903Z,44.81
2022-08-25T10:08:56.363Z,45.25
2022-08-25T10:11:40.068Z,42.83
2022-08-25T10:14:28.482Z,44.50
2022-08-25T10:17:16.353Z,43.81
2022-08-25T10:19:44.137Z,45.19
2022-08-25T10:22:21.731Z,44.32
2022-08-25T10:24:49.429Z,43.92
2022-08-25T10:27:40.032Z,42.95
2022-08-25T10:30:23.759Z,40.26
2022-08-25T10:33:09.090Z,40.35
2022-08-25T10:35:41.865Z,42.79
2022-08-25T10:38:23.499Z,42.28
2022-08-25T10:41:02.685Z,40.25
2022-08-25T10:43:51.170Z,42.44
2022-08-25T10:46:27.830Z,37.61
2022-08-25T10:49:08.670Z,40.45
2022-08-25T10:51:45.995Z,40.45
2022-08-25T10:54:17.607Z,40.37
2022-08-25T10:57:01.981Z,39.20
2022-08-25T11:00:08.237Z,34.54
2022-08-25T11:02:47.695Z,39.28
2022-08-25T11:05:33.282Z,39.18
2022-08-25T11:08:06.439Z,39.59
2022-08-25T11:10:44.613Z,37.00
2022-08-25T11:13:48.738Z,36.76
2022-08-25T11:16:20.502Z,38.66
2022-08-25T11:19:05.567Z,34.47
2022-08-25T11:21:48.259Z,36.47
2022-08-25T11:24:23.139Z,37.24
2022-08-25T11:26:55.818Z,36.90
2022-08-25T11:29:27.196Z,36.43
2022-08-25T11:31:54.746Z,37.31
2022-08-25T11:34:23.290Z,36.40
2022-08-25T11:37:00.064Z,35.06
2022-08-25T11:39:36.248Z,37.27
2022-08-25T11:42:34.125Z,34.51
2022-08-25T11:45:38.743Z,34.91
2022-08-25T11:48:22.073Z,33.10
2022-08-25T11:51:04.775Z,33.41
2022-08-25T11:53:34.971Z,34.70
2022-08-25T11:56:33.086Z,34.43
2022-08-25T11:59:01.317Z,34.52
2022-08-25T12:01:48.118Z,32.35
2022-08-25T12:04:45.134Z,33.84
2022-08-25T12:07:25.915Z,31.36
2022-08-25T12:09:53.815Z,33.46
2022-08-25T12:12:37.278Z,30.93
2022-08-25T12:15:27.096Z,30.22
2022-08-25T12:18:13.019Z,30.40
2022-08-25T12:20:57.658Z,28.96
2022-08-25T12:23:44.960Z,27.95
2022-08-25T12:26:20.822Z,30.15
2022-08-25T12:29:01.221Z,31.83
2022-08-25T12:32:04.514Z,30.15
2022-08-25T12:34:52.013Z,29.23
2022-08-25T12:37:22.269Z,30.97
2022-08-25T12:39:48.931Z,31.65
2022-08-25T12:42:36.206Z,30.77
2022-08-25T12:45:25.712Z,31.22
2022-08-25T12:47:54.824Z,30.78
2022-08-25T12:50:27.580Z,30.89
2022-08-25T12:53:03.222Z,30.89
2022-08-25T12:55:30.289Z,31.25
2022-08-25T12:57:59.049Z,31.00
2022-08-25T13:00:37.700Z,29.64
2022-08-25T13:03:10.933Z,29.77
2022-08-25T13:06:20.097Z,29.28
2022-08-25T13:08:56.311Z,29.01
2022-08-25T13:11:46.872Z,28.99
2022-08-25T13:14:26.949Z,29.55
2022-08-25T13:16:55.680Z,30.17
2022-08-25T13:19:23.739Z,30.42
2022-08-25T13:21:51.514Z,30.16
2022-08-25T13:24:24.448Z,30.26
2022-08-25T13:26:55.541Z,29.83
2022-08-25T13:29:27.890Z,29.28
2022-08-25T13:32:09.272Z,28.65
2022-08-25T13:34:42.893Z,30.03
2022-08-25T13:37:31.221Z,28.53
2022-08-25T13:40:24.812Z,29.03
2022-08-25T13:43:01.258Z,29.99
2022-08-25T13:45:40.180Z,29.51
2022-08-25T13:48:23.001Z,29.53
2022-08-25T13:50:53.297Z,28.90
2022-08-25T13:53:26.292Z,28.88
2022-08-25T13:55:58.479Z,28.95
2022-08-25T13:58:45.137Z,27.95
2022-08-25T14:01:48.971Z,28.51
2022-08-25T14:04:21.736Z,27.85
2022-08-25T14:06:49.688Z,28.66
2022-08-25T14:09:28.213Z,28.40
2022-08-25T14:11:59.697Z,27.41
2022-08-25T14:14:26.658Z,28.84
2022-08-25T14:17:21.598Z,26.00
2022-08-25T14:19:55.746Z,28.04
2022-08-25T14:22:22.928Z,28.20
2022-08-25T14:24:52.708Z,27.95
2022-08-25T14:27:19.700Z,28.34
2022-08-25T14:29:50.942Z,27.97
2022-08-25T14:32:21.770Z,27.89
2022-08-25T14:34:48.662Z,28.12
2022-08-25T14:37:19.523Z,27.90
2022-08-25T14:39:49.379Z,27.93
2022-08-25T14:42:16.822Z,27.15
2022-08-25T14:44:44.360Z,27.60
2022-08-25T14:47:11.148Z,27.66
2022-08-25T14:49:43.975Z,27.24
2022-08-25T14:52:19.331Z,27.18
2022-08-25T14:54:49.413Z,27.87
2022-08-25T14:57:16.425Z,27.35
2022-08-25T14:59:43.494Z,27.64
2022-08-25T15:02:14.412Z,27.15
2022-08-25T15:04:49.110Z,26.82
2022-08-25T15:07:36.096Z,26.75
2022-08-25T15:10:09.863Z,26.94
2022-08-25T15:12:47.229Z,27.32
2022-08-25T15:15:16.030Z,26.72
2022-08-25T15:17:45.461Z,26.94
2022-08-25T15:20:12.931Z,26.86
2022-08-25T15:22:44.639Z,27.07
2022-08-25T15:25:12.238Z,26.96
2022-08-25T15:27:38.956Z,27.11
2022-08-25T15:30:06.189Z,27.26
2022-08-25T15:32:33.229Z,27.66
2022-08-25T15:35:03.434Z,27.63
2022-08-25T15:37:31.492Z,27.79
2022-08-25T15:39:59.087Z,27.57
2022-08-25T15:42:26.903Z,27.77
2022-08-25T15:44:54.709Z,28.03
2022-08-25T15:47:26.874Z,27.79
2022-08-25T15:50:07.390Z,28.01
2022-08-25T15:52:44.596Z,27.93
2022-08-25T15:55:14.887Z,27.64
2022-08-25T15:57:42.253Z,27.56
2022-08-25T16:00:12.110Z,27.83
2022-08-25T16:02:40.613Z,27.83
2022-08-25T16:05:09.640Z,27.68
2022-08-25T16:07:37.742Z,28.33
2022-08-25T16:10:05.845Z,28.14
2022-08-25T16:12:32.569Z,28.57
2022-08-25T16:14:59.199Z,28.87
2022-08-25T16:17:27.392Z,28.84
2022-08-25T16:19:54.203Z,28.87
2022-08-25T16:22:20.911Z,29.01
2022-08-25T16:24:48.016Z,28.63
2022-08-25T16:27:15.277Z,28.41
2022-08-25T16:29:44.007Z,28.84
2022-08-25T16:32:13.454Z,28.75
2022-08-25T16:34:41.440Z,29.10
2022-08-25T16:37:08.678Z,29.12
2022-08-25T16:39:36.668Z,28.54
2022-08-25T16:42:06.774Z,28.67
2022-08-25T16:44:34.582Z,29.05
2022-08-25T16:47:01.727Z,29.17
2022-08-25T16:49:28.451Z,28.70
2022-08-25T16:51:57.027Z,28.62
2022-08-25T16:54:42.921Z,29.16
2022-08-25T16:57:09.806Z,28.77
2022-08-25T16:59:36.461Z,28.68
2022-08-25T17:02:04.003Z,28.94
2022-08-25T17:04:32.594Z,28.82
2022-08-25T17:06:59.558Z,28.83
2022-08-25T17:09:26.238Z,29.14
2022-08-25T17:11:56.820Z,29.90
2022-08-25T17:14:24.366Z,29.79
2022-08-25T17:16:54.813Z,30.28
2022-08-25T17:19:23.784Z,30.61
2022-08-25T17:21:51.375Z,30.28
2022-08-25T17:24:20.998Z,30.59
2022-08-25T17:26:51.071Z,31.63
2022-08-25T17:29:19.772Z,32.92
2022-08-25T17:31:48.399Z,32.78
2022-08-25T17:34:16.880Z,33.43
2022-08-25T17:36:50.852Z,35.12
2022-08-25T17:39:19.619Z,36.47
2022-08-25T17:41:48.806Z,36.66
2022-08-25T17:44:17.715Z,37.15
2022-08-25T17:46:47.405Z,37.93
2022-08-25T17:49:15.457Z,38.66
2022-08-25T17:51:42.738Z,39.25
2022-08-25T17:54:09.447Z,39.76
2022-08-25T17:56:36.818Z,40.43
2022-08-25T17:59:03.514Z,41.10
2022-08-25T18:05:21.707Z,40.88
2022-08-25T18:07:48.363Z,41.13
2022-08-25T18:10:16.583Z,41.43
2022-08-25T18:12:43.703Z,42.12
2022-08-25T18:15:12.401Z,42.65
2022-08-25T18:17:41.155Z,43.11
2022-08-25T18:20:11.231Z,42.85
2022-08-25T18:22:38.736Z,42.87
2022-08-25T18:25:07.499Z,43.05
2022-08-25T18:27:34.939Z,43.65
2022-08-25T18:30:02.088Z,44.19
2022-08-25T18:32:33.712Z,43.77
2022-08-25T18:35:00.602Z,44.15
2022-08-25T18:37:46.007Z,44.02
2022-08-25T18:40:25.727Z,44.39
2022-08-25T18:42:58.935Z,44.29
2022-08-25T18:45:32.189Z,44.80
2022-08-25T18:48:00.984Z,44.85
2022-08-25T18:50:32.358Z,44.73
2022-08-25T18:53:00.429Z,45.45
2022-08-25T18:55:27.997Z,46.18
2022-08-25T18:57:55.979Z,47.03
2022-08-25T19:00:25.560Z,47.87
2022-08-25T19:02:56.063Z,47.33
2022-08-25T19:05:34.189Z,48.51
2022-08-25T19:08:03.032Z,48.23
2022-08-25T19:10:30.434Z,48.95
2022-08-25T19:12:58.258Z,49.59
2022-08-25T19:15:30.521Z,51.18
2022-08-25T19:17:58.854Z,50.89
2022-08-25T19:20:26.296Z,52.41
2022-08-25T19:22:52.990Z,53.42
2022-08-25T19:25:21.841Z,53.79
2022-08-25T19:27:49.587Z,53.97
2022-08-25T19:30:18.141Z,55.22
2022-08-25T19:32:47.725Z,54.95
2022-08-25T19:35:31.853Z,55.95
2022-08-25T19:38:00.664Z,56.49
2022-08-25T19:40:29.472Z,57.30
2022-08-25T19:42:56.397Z,57.72
2022-08-25T19:45:24.634Z,58.02
2022-08-25T19:47:51.810Z,58.21
2022-08-25T19:50:20.864Z,58.96
2022-08-25T19:52:49.957Z,61.00
2022-08-25T19:55:19.313Z,60.09
2022-08-25T19:57:46.841Z,60.61
2022-08-25T20:00:20.651Z,62.96
2022-08-25T20:02:47.582Z,61.40
2022-08-25T20:05:16.999Z,62.26
2022-08-25T20:07:52.665Z,62.26
2022-08-25T20:10:20.358Z,62.83
2022-08-25T20:12:47.434Z,63.08
2022-08-25T20:15:16.733Z,62.93
2022-08-25T20:17:43.482Z,63.97
2022-08-25T20:20:15.396Z,63.93
2022-08-25T20:22:42.527Z,63.29
2022-08-25T20:25:13.756Z,63.64
2022-08-25T20:27:43.946Z,65.01
2022-08-25T20:30:16.749Z,63.93
2022-08-25T20:32:44.347Z,64.42
2022-08-25T20:35:16.623Z,64.98
2022-08-25T20:37:45.449Z,64.65
2022-08-25T20:40:14.787Z,65.74
2022-08-25T20:42:43.615Z,65.78
2022-08-25T20:45:14.109Z,66.74
2022-08-25T20:47:40.977Z,66.11
2022-08-25T20:50:09.227Z,66.77
2022-08-25T20:52:42.475Z,66.83
2022-08-25T20:55:11.137Z,68.22
2022-08-25T20:57:39.343Z,68.25
2022-08-25T21:00:09.248Z,68.31
2022-08-25T21:02:36.502Z,68.33
2022-08-25T21:05:04.684Z,68.95
2022-08-25T21:07:31.500Z,69.12
2022-08-25T21:10:05.365Z,69.15
2022-08-25T21:12:32.226Z,69.62
2022-08-25T21:14:58.928Z,69.46
2022-08-25T21:17:26.190Z,69.88
2022-08-25T21:19:52.734Z,70.04
2022-08-25T21:22:19.444Z,70.19
2022-08-25T21:24:47.460Z,69.86
2022-08-25T21:27:14.513Z,70.73
2022-08-25T21:29:44.422Z,71.32
2022-08-25T21:32:11.672Z,72.56
2022-08-25T21:34:38.376Z,71.66
2022-08-25T21:37:05.404Z,72.31
2022-08-25T21:39:33.124Z,72.62
2022-08-25T21:42:00.662Z,72.28
2022-08-25T21:44:28.876Z,72.67
2022-08-25T21:46:56.142Z,73.09
2022-08-25T21:49:24.157Z,72.51
2022-08-25T21:52:00.418Z,72.52
2022-08-25T21:54:28.768Z,73.32
2022-08-25T21:56:59.880Z,73.08
2022-08-25T21:59:30.534Z,73.59
2022-08-25T22:01:59.947Z,74.00
2022-08-25T22:04:27.917Z,74.00
2022-08-25T22:06:55.045Z,74.61
2022-08-25T22:09:24.703Z,74.28
2022-08-25T22:11:52.841Z,74.89
2022-08-25T22:14:23.412Z,74.87
2022-08-25T22:16:52.058Z,74.21
2022-08-25T22:19:18.792Z,74.33
2022-08-25T22:21:50.381Z,74.52
2022-08-25T22:24:18.171Z,74.91
2022-08-25T22:26:47.485Z,74.69
2022-08-25T22:29:23.251Z,74.61
2022-08-25T22:31:54.129Z,75.50
2022-08-25T22:34:30.742Z,74.85
2022-08-25T22:36:59.747Z,75.32
2022-08-25T22:39:27.344Z,75.28
2022-08-25T22:41:53.999Z,75.30
2022-08-25T22:44:23.165Z,75.55
2022-08-25T22:46:49.907Z,74.92
2022-08-25T22:49:17.267Z,74.87
2022-08-25T22:51:44.366Z,75.25
2022-08-25T22:54:15.231Z,74.89
2022-08-25T22:56:42.299Z,74.93
2022-08-25T22:59:10.939Z,75.27
2022-08-25T23:01:37.619Z,75.33
2022-08-25T23:04:07.154Z,75.20
2022-08-25T23:06:36.612Z,75.35
2022-08-25T23:09:06.203Z,75.09
2022-08-25T23:11:32.957Z,75.43
2022-08-25T23:14:05.459Z,75.18
2022-08-25T23:16:33.212Z,75.11
2022-08-25T23:19:00.631Z,75.10
2022-08-25T23:21:46.449Z,75.06
2022-08-25T23:24:26.835Z,75.32
2022-08-25T23:26:58.466Z,75.63
2022-08-25T23:29:25.261Z,75.45
2022-08-25T23:31:52.168Z,75.75
2022-08-25T23:34:23.205Z,75.53
2022-08-25T23:36:50.504Z,75.30
2022-08-25T23:39:17.063Z,75.35
2022-08-25T23:41:43.641Z,75.39
2022-08-25T23:44:11.658Z,75.29
2022-08-25T23:46:44.497Z,75.52
2022-08-25T23:49:11.094Z,75.26
2022-08-25T23:51:38.005Z,75.37
2022-08-25T23:54:09.267Z,75.65
2022-08-25T23:56:44.526Z,75.38
2022-08-25T23:59:13.099Z,75.47
